Terminal Aerodrome Forecast
Issued by NWS Sioux Falls, SD

Home | Current Version | Previous Version | Graphics & Text | Print | Product List | Glossary Off
Versions: 1 2 3 4 5 6 7 8 9 10 11 12 13

000
FTUS43 KFSD 170500
TAFSUX
TAF
KSUX 170523Z 1706/1806 34016G25KT P6SM OVC015
     FM171300 35013KT P6SM SCT015 SCT200
     FM171800 35008KT P6SM SKC
     FM172100 VRB04KT P6SM SKC
     FM180200 10006KT P6SM BKN120=

USA.gov is the U.S. government's official web portal to all federal, state and local government web resources and services.